createdAt,value
2024-01-18T00:01:13.351Z,-2.88
2024-01-18T00:04:01.809Z,-2.87
2024-01-18T00:06:47.575Z,-2.87
2024-01-18T00:09:33.129Z,-2.93
2024-01-18T00:12:18.774Z,-3.22
2024-01-18T00:15:04.808Z,-3.00
2024-01-18T00:17:50.601Z,-3.00
2024-01-18T00:20:36.209Z,-3.01
2024-01-18T00:23:21.859Z,-3.03
2024-01-18T00:26:07.643Z,-3.00
2024-01-18T00:28:53.020Z,-3.00
2024-01-18T00:31:38.425Z,-2.95
2024-01-18T00:34:23.776Z,-2.92
2024-01-18T00:37:09.320Z,-3.11
2024-01-18T00:39:54.969Z,-2.99
2024-01-18T00:42:40.729Z,-3.02
2024-01-18T00:45:26.296Z,-2.92
2024-01-18T00:48:11.641Z,-2.94
2024-01-18T00:50:57.989Z,-3.41
2024-01-18T00:53:43.645Z,-3.48
2024-01-18T00:56:29.308Z,-3.67
2024-01-18T00:59:14.608Z,-3.81
2024-01-18T01:02:01.166Z,-4.40
2024-01-18T01:04:47.509Z,-4.68
2024-01-18T01:07:32.887Z,-5.17
2024-01-18T01:10:18.400Z,-5.34
2024-01-18T01:13:03.584Z,-5.66
2024-01-18T01:15:49.388Z,-5.10
2024-01-18T01:18:34.752Z,-4.50
2024-01-18T01:21:20.633Z,-4.51
2024-01-18T01:24:06.356Z,-4.34
2024-01-18T01:26:51.788Z,-4.54
2024-01-18T01:29:37.668Z,-4.76
2024-01-18T01:32:22.929Z,-4.75
2024-01-18T01:35:08.626Z,-5.24
2024-01-18T01:37:54.282Z,-4.85
2024-01-18T01:40:39.801Z,-4.45
2024-01-18T01:43:25.617Z,-4.92
2024-01-18T01:46:10.768Z,-4.76
2024-01-18T01:49:02.521Z,-4.77
2024-01-18T01:51:50.933Z,-4.53
2024-01-18T01:54:36.501Z,-4.42
2024-01-18T01:57:22.212Z,-4.50
2024-01-18T02:00:09.335Z,-4.21
2024-01-18T02:02:58.517Z,-4.31
2024-01-18T02:05:45.811Z,-4.34
2024-01-18T02:08:31.856Z,-4.33
2024-01-18T02:11:17.550Z,-4.17
2024-01-18T02:14:04.323Z,-4.36
2024-01-18T02:16:50.064Z,-4.55
2024-01-18T02:19:35.939Z,-4.98
2024-01-18T02:22:25.949Z,-4.88
2024-01-18T02:25:21.627Z,-4.86
2024-01-18T02:28:06.760Z,-4.89
2024-01-18T02:30:51.941Z,-4.31
2024-01-18T02:33:37.442Z,-4.56
2024-01-18T02:36:22.786Z,-4.80
2024-01-18T02:39:08.250Z,-5.10
2024-01-18T02:41:53.807Z,-5.11
2024-01-18T02:44:39.331Z,-5.31
2024-01-18T02:47:28.954Z,-5.14
2024-01-18T02:50:14.456Z,-5.09
2024-01-18T02:52:59.720Z,-5.25
2024-01-18T02:55:45.195Z,-5.76
2024-01-18T02:58:30.833Z,-5.54
2024-01-18T03:01:16.563Z,-5.14
2024-01-18T03:04:02.256Z,-5.26
2024-01-18T03:06:48.183Z,-5.21
2024-01-18T03:09:33.840Z,-5.55
2024-01-18T03:12:19.213Z,-5.64
2024-01-18T03:15:10.231Z,-5.63
2024-01-18T03:17:55.947Z,-5.08
2024-01-18T03:20:41.111Z,-5.10
2024-01-18T03:23:26.931Z,-5.29
2024-01-18T03:26:12.379Z,-5.38
2024-01-18T03:28:57.981Z,-5.93
2024-01-18T03:31:43.269Z,-5.57
2024-01-18T03:34:28.739Z,-5.18
2024-01-18T03:37:14.270Z,-5.01
2024-01-18T03:39:59.488Z,-5.33
2024-01-18T03:42:44.669Z,-5.30
2024-01-18T03:45:30.267Z,-5.12
2024-01-18T03:48:15.592Z,-5.13
2024-01-18T03:51:00.890Z,-5.00
2024-01-18T03:53:46.256Z,-5.16
2024-01-18T03:56:31.604Z,-5.16
2024-01-18T03:59:17.160Z,-5.31
2024-01-18T04:02:02.455Z,-5.44
2024-01-18T04:04:48.313Z,-5.36
2024-01-18T04:07:33.515Z,-5.29
2024-01-18T04:10:19.109Z,-5.19
2024-01-18T04:13:04.759Z,-5.04
2024-01-18T04:15:50.283Z,-5.53
2024-01-18T04:18:36.075Z,-5.28
2024-01-18T04:21:21.486Z,-5.21
2024-01-18T04:24:06.931Z,-5.03
2024-01-18T04:26:52.144Z,-4.96
2024-01-18T04:29:37.422Z,-5.13
2024-01-18T04:32:22.385Z,-5.02
2024-01-18T04:35:08.226Z,-5.22
2024-01-18T04:37:53.878Z,-5.31
2024-01-18T04:40:39.531Z,-5.56
2024-01-18T04:43:25.113Z,-5.26
2024-01-18T04:46:10.907Z,-5.30
2024-01-18T04:48:56.490Z,-5.35
2024-01-18T04:51:42.093Z,-5.22
2024-01-18T04:54:27.554Z,-4.70
2024-01-18T04:57:12.939Z,-4.54
2024-01-18T04:59:58.800Z,-4.27
2024-01-18T05:02:44.324Z,-4.19
2024-01-18T05:05:30.383Z,-4.54
2024-01-18T05:08:15.756Z,-4.64
2024-01-18T05:11:01.415Z,-4.61
2024-01-18T05:13:46.985Z,-5.27
2024-01-18T05:16:32.763Z,-4.89
2024-01-18T05:19:19.649Z,-4.58
2024-01-18T05:22:05.525Z,-4.61
2024-01-18T05:24:50.774Z,-5.02
2024-01-18T05:27:36.535Z,-4.95
2024-01-18T05:30:21.655Z,-4.85
2024-01-18T05:33:07.349Z,-5.23
2024-01-18T05:35:53.591Z,-5.28
2024-01-18T05:38:41.691Z,-5.51
2024-01-18T05:41:27.497Z,-5.34
2024-01-18T05:44:12.904Z,-5.16
2024-01-18T05:46:58.227Z,-4.70
2024-01-18T05:49:44.372Z,-4.74
2024-01-18T05:52:29.610Z,-4.61
2024-01-18T05:55:14.857Z,-4.47
2024-01-18T05:58:00.133Z,-4.23
2024-01-18T06:00:45.574Z,-4.31
2024-01-18T06:03:31.297Z,-4.28
2024-01-18T06:06:17.201Z,-5.40
2024-01-18T06:09:03.125Z,-5.57
2024-01-18T06:11:48.929Z,-5.54
2024-01-18T06:14:35.424Z,-5.36
2024-01-18T06:17:20.905Z,-4.78
2024-01-18T06:20:07.358Z,-4.41
2024-01-18T06:22:52.764Z,-4.44
2024-01-18T06:25:38.259Z,-5.02
2024-01-18T06:28:23.818Z,-5.65
2024-01-18T06:31:09.126Z,-5.87
2024-01-18T06:33:54.897Z,-5.78
2024-01-18T06:36:40.385Z,-5.69
2024-01-18T06:39:26.040Z,-5.62
2024-01-18T06:42:11.409Z,-5.62
2024-01-18T06:44:56.785Z,-6.07
2024-01-18T06:47:42.383Z,-5.77
2024-01-18T06:50:27.871Z,-5.55
2024-01-18T06:53:13.179Z,-5.55
2024-01-18T06:55:58.544Z,-5.74
2024-01-18T06:58:44.630Z,-6.05
2024-01-18T07:01:30.235Z,-5.99
2024-01-18T07:04:15.667Z,-6.31
2024-01-18T07:07:01.715Z,-6.50
2024-01-18T07:09:47.381Z,-6.42
2024-01-18T07:12:35.396Z,-6.76
2024-01-18T07:15:21.025Z,-7.46
2024-01-18T07:18:06.833Z,-7.29
2024-01-18T07:20:52.138Z,-7.00
2024-01-18T07:23:37.588Z,-6.75
2024-01-18T07:26:23.233Z,-7.01
2024-01-18T07:29:10.113Z,-6.93
2024-01-18T07:31:55.592Z,-6.71
2024-01-18T07:34:41.273Z,-6.48
2024-01-18T07:37:26.263Z,-6.56
2024-01-18T07:40:12.098Z,-6.56
2024-01-18T07:42:57.487Z,-6.49
2024-01-18T07:45:43.141Z,-6.43
2024-01-18T07:48:31.399Z,-6.43
2024-01-18T07:51:16.672Z,-6.40
2024-01-18T07:54:01.858Z,-6.45
2024-01-18T07:56:47.399Z,-6.12
2024-01-18T07:59:33.019Z,-5.84
2024-01-18T08:02:18.199Z,-5.87
2024-01-18T08:05:03.781Z,-5.88
2024-01-18T08:07:49.873Z,-6.07
2024-01-18T08:10:35.030Z,-5.68
2024-01-18T08:13:20.580Z,-5.85
2024-01-18T08:16:05.940Z,-5.84
2024-01-18T08:18:51.630Z,-6.09
2024-01-18T08:21:45.332Z,-6.14
2024-01-18T08:24:30.839Z,-6.06
2024-01-18T08:27:16.700Z,-5.83
2024-01-18T08:30:02.204Z,-5.47
2024-01-18T08:32:47.517Z,-6.02
2024-01-18T08:35:33.985Z,-5.80
2024-01-18T08:38:20.003Z,-5.78
2024-01-18T08:41:05.492Z,-5.93
2024-01-18T08:43:51.154Z,-5.83
2024-01-18T08:46:36.498Z,-5.69
2024-01-18T08:49:21.872Z,-5.70
2024-01-18T08:52:07.599Z,-5.81
2024-01-18T08:54:53.491Z,-5.39
2024-01-18T08:57:39.187Z,-5.63
2024-01-18T09:00:24.591Z,-5.77
2024-01-18T09:03:10.041Z,-5.56
2024-01-18T09:05:57.048Z,-5.70
2024-01-18T09:08:42.490Z,-5.51
2024-01-18T09:11:27.931Z,-5.55
2024-01-18T09:14:13.585Z,-5.75
2024-01-18T09:16:58.956Z,-6.45
2024-01-18T09:19:44.683Z,-5.64
2024-01-18T09:22:30.153Z,-5.41
2024-01-18T09:25:15.213Z,-5.39
2024-01-18T09:28:00.596Z,-5.49
2024-01-18T09:30:45.943Z,-5.52
2024-01-18T09:33:31.674Z,-5.40
2024-01-18T09:36:17.453Z,-5.45
2024-01-18T09:39:02.893Z,-5.03
2024-01-18T09:41:55.797Z,-4.63
2024-01-18T09:44:46.396Z,-4.70
2024-01-18T09:47:31.789Z,-4.65
2024-01-18T09:50:20.359Z,-4.60
2024-01-18T09:53:06.113Z,-4.67
2024-01-18T09:55:54.161Z,-4.43
2024-01-18T09:58:39.836Z,-4.22
2024-01-18T10:01:25.167Z,-4.37
2024-01-18T10:04:13.020Z,-4.38
2024-01-18T10:07:00.296Z,-4.26
2024-01-18T10:09:47.516Z,-3.58
2024-01-18T10:12:32.817Z,-3.85
2024-01-18T10:15:34.852Z,-3.76
2024-01-18T10:18:20.359Z,-3.92
2024-01-18T10:21:06.288Z,-3.83
2024-01-18T10:23:53.609Z,-3.47
2024-01-18T10:26:38.815Z,-3.85
2024-01-18T10:29:24.618Z,-4.00
2024-01-18T10:32:09.821Z,-3.98
2024-01-18T10:34:55.443Z,-4.41
2024-01-18T10:37:40.564Z,-4.71
2024-01-18T10:40:25.915Z,-4.85
2024-01-18T10:43:13.129Z,-4.63
2024-01-18T10:46:00.055Z,-4.94
2024-01-18T10:48:47.743Z,-5.00
2024-01-18T10:51:33.030Z,-4.52
2024-01-18T10:54:25.999Z,-4.78
2024-01-18T10:57:17.946Z,-4.72
2024-01-18T11:00:03.430Z,-4.53
2024-01-18T11:02:49.205Z,-4.61
2024-01-18T11:05:35.285Z,-4.63
2024-01-18T11:08:20.819Z,-4.62
2024-01-18T11:11:07.374Z,-4.51
2024-01-18T11:13:53.060Z,-4.50
2024-01-18T11:16:41.224Z,-4.17
2024-01-18T11:19:46.715Z,-4.20
2024-01-18T11:22:32.363Z,-4.03
2024-01-18T11:25:28.701Z,-3.56
2024-01-18T11:28:23.389Z,-3.40
2024-01-18T11:31:08.873Z,-3.24
2024-01-18T11:33:55.826Z,-3.01
2024-01-18T11:36:47.624Z,-3.27
2024-01-18T11:39:47.934Z,-3.23
2024-01-18T11:42:34.291Z,-3.40
2024-01-18T11:45:20.206Z,-3.53
2024-01-18T11:48:06.134Z,-3.93
2024-01-18T11:50:51.525Z,-3.54
2024-01-18T11:53:38.182Z,-3.26
2024-01-18T11:56:24.827Z,-3.08
2024-01-18T11:59:10.461Z,-3.00
2024-01-18T12:01:55.912Z,-3.34
2024-01-18T12:04:41.612Z,-2.86
2024-01-18T12:07:27.399Z,-2.76
2024-01-18T12:10:13.104Z,-2.74
2024-01-18T12:12:59.885Z,-2.89
2024-01-18T12:15:46.148Z,-2.43
2024-01-18T12:18:41.849Z,-2.98
2024-01-18T12:21:27.129Z,-2.64
2024-01-18T12:24:12.688Z,-3.01
2024-01-18T12:26:58.302Z,-2.60
2024-01-18T12:29:44.007Z,-2.57
2024-01-18T12:32:30.007Z,-2.46
2024-01-18T12:35:15.640Z,-2.58
2024-01-18T12:38:03.568Z,-2.50
2024-01-18T12:40:49.603Z,-2.43
2024-01-18T12:43:35.104Z,-2.45
2024-01-18T12:46:20.972Z,-2.49
2024-01-18T12:49:07.198Z,-2.09
2024-01-18T12:51:58.708Z,-2.22
2024-01-18T12:54:44.616Z,-2.06
2024-01-18T12:57:30.553Z,-2.60
2024-01-18T13:00:16.644Z,-2.59
2024-01-18T13:03:15.377Z,-2.48
2024-01-18T13:06:01.102Z,-2.23
2024-01-18T13:08:46.692Z,-2.14
2024-01-18T13:11:33.084Z,-2.19
2024-01-18T13:14:19.118Z,-2.23
2024-01-18T13:17:05.525Z,-2.21
2024-01-18T13:19:54.602Z,-1.83
2024-01-18T13:22:40.260Z,-1.68
2024-01-18T13:25:26.026Z,-1.36
2024-01-18T13:28:11.631Z,-1.89
2024-01-18T13:30:57.392Z,-2.32
2024-01-18T13:33:42.629Z,-1.99
2024-01-18T13:36:28.282Z,-2.56
2024-01-18T13:39:13.865Z,-2.17
2024-01-18T13:41:59.110Z,-2.24
2024-01-18T13:44:44.756Z,-2.33
2024-01-18T13:47:30.413Z,-2.46
2024-01-18T13:50:16.169Z,-2.21
2024-01-18T13:53:01.396Z,-2.53
2024-01-18T13:55:47.371Z,-2.68
2024-01-18T13:58:33.190Z,-2.63
2024-01-18T14:01:18.724Z,-2.56
2024-01-18T14:04:04.347Z,-2.50
2024-01-18T14:06:49.991Z,-2.41
2024-01-18T14:09:35.222Z,-2.22
2024-01-18T14:12:20.863Z,-2.45
2024-01-18T14:15:07.368Z,-2.64
2024-01-18T14:17:53.055Z,-2.86
2024-01-18T14:20:38.760Z,-2.77
2024-01-18T14:23:24.114Z,-3.09
2024-01-18T14:26:09.870Z,-2.95
2024-01-18T14:28:55.112Z,-3.13
2024-01-18T14:31:40.400Z,-3.30
2024-01-18T14:34:26.101Z,-3.20
2024-01-18T14:37:13.020Z,-3.22
2024-01-18T14:39:58.871Z,-2.88
2024-01-18T14:42:44.310Z,-3.06
2024-01-18T14:45:29.845Z,-3.12
2024-01-18T14:48:16.776Z,-3.30
2024-01-18T14:51:02.321Z,-3.62
2024-01-18T14:53:48.011Z,-3.39
2024-01-18T14:56:33.470Z,-3.03
2024-01-18T14:59:18.869Z,-2.71
2024-01-18T15:02:04.894Z,-2.57
2024-01-18T15:04:50.243Z,-3.29
2024-01-18T15:07:35.655Z,-3.23
2024-01-18T15:10:21.066Z,-3.28
2024-01-18T15:13:06.391Z,-3.80
2024-01-18T15:15:52.555Z,-3.53
2024-01-18T15:18:37.989Z,-3.32
2024-01-18T15:21:23.804Z,-3.00
2024-01-18T15:24:08.952Z,-2.87
2024-01-18T15:26:54.597Z,-2.97
2024-01-18T15:29:40.237Z,-2.98
2024-01-18T15:32:25.765Z,-2.96
2024-01-18T15:35:11.965Z,-3.03
2024-01-18T15:37:57.915Z,-3.04
2024-01-18T15:40:43.766Z,-3.06
2024-01-18T15:43:30.027Z,-3.15
2024-01-18T15:46:15.336Z,-3.25
2024-01-18T15:49:00.781Z,-3.20
2024-01-18T15:51:46.082Z,-3.14
2024-01-18T15:54:31.520Z,-3.32
2024-01-18T15:57:16.997Z,-3.85
2024-01-18T16:00:02.503Z,-4.18
2024-01-18T16:02:49.806Z,-3.76
2024-01-18T16:05:35.758Z,-3.84
2024-01-18T16:08:21.185Z,-4.04
2024-01-18T16:11:07.495Z,-3.77
2024-01-18T16:13:52.857Z,-4.31
2024-01-18T16:16:39.090Z,-5.04
2024-01-18T16:19:24.556Z,-4.95
2024-01-18T16:22:10.068Z,-4.66
2024-01-18T16:24:55.992Z,-4.90
2024-01-18T16:27:43.530Z,-4.30
2024-01-18T16:30:31.491Z,-4.63
2024-01-18T16:33:17.622Z,-4.39
2024-01-18T16:36:03.339Z,-4.60
2024-01-18T16:38:48.621Z,-4.65
2024-01-18T16:41:34.293Z,-4.66
2024-01-18T16:44:19.528Z,-4.77
2024-01-18T16:47:05.118Z,-4.68
2024-01-18T16:49:50.723Z,-4.39
2024-01-18T16:52:36.084Z,-4.51
2024-01-18T16:55:21.605Z,-4.65
2024-01-18T16:58:07.217Z,-4.82
2024-01-18T17:00:54.772Z,-4.66
2024-01-18T17:03:40.644Z,-4.62
2024-01-18T17:06:26.535Z,-4.91
2024-01-18T17:09:11.916Z,-4.66
2024-01-18T17:11:57.347Z,-4.46
2024-01-18T17:14:43.489Z,-4.27
2024-01-18T17:17:29.726Z,-4.09
2024-01-18T17:20:15.181Z,-4.21
2024-01-18T17:23:01.430Z,-3.96
2024-01-18T17:25:47.075Z,-3.77
2024-01-18T17:28:32.394Z,-3.82
2024-01-18T17:31:17.966Z,-4.06
2024-01-18T17:34:03.534Z,-4.09
2024-01-18T17:36:49.895Z,-3.93
2024-01-18T17:39:35.473Z,-3.70
2024-01-18T17:42:20.760Z,-3.77
2024-01-18T17:45:06.823Z,-3.57
2024-01-18T17:47:53.725Z,-3.39
2024-01-18T17:50:42.267Z,-3.30
2024-01-18T17:53:29.353Z,-3.24
2024-01-18T17:56:14.953Z,-3.73
2024-01-18T17:59:00.406Z,-3.48
2024-01-18T18:01:45.837Z,-3.55
2024-01-18T18:04:31.354Z,-3.55
2024-01-18T18:07:16.929Z,-3.84
2024-01-18T18:10:03.950Z,-3.77
2024-01-18T18:12:49.540Z,-3.55
2024-01-18T18:15:41.868Z,-3.54
2024-01-18T18:18:31.497Z,-3.60
2024-01-18T18:21:17.271Z,-3.51
2024-01-18T18:24:02.601Z,-3.66
2024-01-18T18:26:48.072Z,-3.44
2024-01-18T18:29:33.629Z,-3.79
2024-01-18T18:32:18.949Z,-3.75
2024-01-18T18:35:04.928Z,-3.46
2024-01-18T18:37:50.425Z,-3.49
2024-01-18T18:40:35.988Z,-3.35
2024-01-18T18:43:22.107Z,-3.38
2024-01-18T18:46:07.724Z,-3.49
2024-01-18T18:48:53.087Z,-3.44
2024-01-18T18:51:38.817Z,-3.40
2024-01-18T18:54:24.181Z,-3.37
2024-01-18T18:57:09.598Z,-3.33
2024-01-18T18:59:56.134Z,-3.46
2024-01-18T19:02:41.495Z,-3.41
2024-01-18T19:05:27.238Z,-3.62
2024-01-18T19:08:12.879Z,-3.52
2024-01-18T19:10:58.220Z,-3.52
2024-01-18T19:13:43.770Z,-3.57
2024-01-18T19:16:30.914Z,-3.46
2024-01-18T19:19:17.029Z,-3.63
2024-01-18T19:22:02.493Z,-3.27
2024-01-18T19:24:49.466Z,-3.22
2024-01-18T19:27:35.254Z,-3.14
2024-01-18T19:30:20.991Z,-3.12
2024-01-18T19:33:10.768Z,-3.15
2024-01-18T19:36:07.222Z,-3.14
2024-01-18T19:38:53.157Z,-3.24
2024-01-18T19:41:38.477Z,-3.07
2024-01-18T19:44:23.975Z,-3.03
2024-01-18T19:47:09.620Z,-3.10
2024-01-18T19:49:55.010Z,-3.43
2024-01-18T19:52:40.368Z,-3.15
2024-01-18T19:55:26.800Z,-3.04
2024-01-18T19:58:12.080Z,-3.00
2024-01-18T20:00:57.384Z,-2.98
2024-01-18T20:03:42.976Z,-2.91
2024-01-18T20:06:28.617Z,-2.89
2024-01-18T20:09:13.797Z,-2.88
2024-01-18T20:12:00.739Z,-2.93
2024-01-18T20:14:46.516Z,-2.90
2024-01-18T20:17:31.695Z,-3.06
2024-01-18T20:20:18.147Z,-3.01
2024-01-18T20:23:04.301Z,-2.98
2024-01-18T20:25:49.750Z,-3.03
2024-01-18T20:28:36.016Z,-3.05
2024-01-18T20:31:21.386Z,-3.13
2024-01-18T20:34:06.737Z,-3.10
2024-01-18T20:36:52.211Z,-3.25
2024-01-18T20:39:37.557Z,-3.22
2024-01-18T20:42:23.151Z,-3.19
2024-01-18T20:45:10.041Z,-3.26
2024-01-18T20:47:55.448Z,-3.23
2024-01-18T20:50:40.924Z,-3.18
2024-01-18T20:53:26.287Z,-3.25
2024-01-18T20:56:11.556Z,-3.46
2024-01-18T20:58:57.220Z,-3.37
2024-01-18T21:01:43.528Z,-3.46
2024-01-18T21:04:29.125Z,-3.31
2024-01-18T21:07:14.552Z,-3.38
2024-01-18T21:10:00.387Z,-3.39
2024-01-18T21:12:46.836Z,-3.47
2024-01-18T21:15:32.260Z,-3.29
2024-01-18T21:18:18.728Z,-3.29
2024-01-18T21:21:04.456Z,-3.38
2024-01-18T21:23:50.187Z,-3.48
2024-01-18T21:26:35.318Z,-3.28
2024-01-18T21:29:20.778Z,-3.18
2024-01-18T21:32:06.216Z,-3.13
2024-01-18T21:34:51.603Z,-3.43
2024-01-18T21:37:37.342Z,-3.40
2024-01-18T21:40:22.530Z,-3.42
2024-01-18T21:43:08.240Z,-3.18
2024-01-18T21:45:53.870Z,-3.12
2024-01-18T21:48:39.647Z,-3.12
2024-01-18T21:51:25.316Z,-3.05
2024-01-18T21:54:11.257Z,-3.12
2024-01-18T21:56:56.945Z,-3.11
2024-01-18T21:59:45.835Z,-3.12
2024-01-18T22:02:30.971Z,-3.12
2024-01-18T22:05:16.381Z,-3.20
2024-01-18T22:08:02.617Z,-3.21
2024-01-18T22:10:48.343Z,-3.25
2024-01-18T22:13:33.722Z,-3.31
2024-01-18T22:16:19.352Z,-3.30
2024-01-18T22:19:05.495Z,-3.32
2024-01-18T22:21:53.212Z,-3.43
2024-01-18T22:24:40.091Z,-3.71
2024-01-18T22:27:25.249Z,-3.58
2024-01-18T22:30:11.132Z,-3.60
2024-01-18T22:32:56.833Z,-3.58
2024-01-18T22:35:42.961Z,-3.58
2024-01-18T22:38:28.759Z,-3.51
2024-01-18T22:41:14.516Z,-3.49
2024-01-18T22:44:00.019Z,-3.38
2024-01-18T22:46:45.431Z,-3.46
2024-01-18T22:49:31.793Z,-3.44
2024-01-18T22:52:17.224Z,-3.67
2024-01-18T22:55:02.692Z,-3.62
2024-01-18T22:57:47.869Z,-3.55
2024-01-18T23:00:33.352Z,-3.93
2024-01-18T23:03:18.728Z,-3.93
2024-01-18T23:08:51.097Z,-4.37
2024-01-18T23:11:37.258Z,-4.15
2024-01-18T23:14:22.598Z,-3.95
2024-01-18T23:17:08.091Z,-3.88
2024-01-18T23:19:53.307Z,-3.81
2024-01-18T23:22:39.155Z,-3.81
2024-01-18T23:25:24.792Z,-4.25
2024-01-18T23:28:09.855Z,-4.56
2024-01-18T23:30:55.552Z,-4.31
2024-01-18T23:33:40.817Z,-4.21
2024-01-18T23:36:26.053Z,-4.39
2024-01-18T23:39:12.124Z,-4.76
2024-01-18T23:41:57.394Z,-4.77
2024-01-18T23:44:43.131Z,-4.63
2024-01-18T23:47:28.468Z,-4.74
2024-01-18T23:50:14.271Z,-4.54
2024-01-18T23:52:59.535Z,-4.26
2024-01-18T23:55:45.067Z,-4.29
2024-01-18T23:58:30.368Z,-3.97
